Time;durP1;ratioP1;P1;durP2;ratioP2;P2;SDS_P1;SDS_P2;PMS_P1;PMS_P2;Temp;Humidity;BMP_temperature;BMP_pressure;BME280_temperature;BME280_humidity;BME280_pressure;Samples;Min_cycle;Max_cycle;Signal;HPM_P1;HPM_P2
2022/08/14 00:02:54;;;;;;;6.95;4.20;;;22.90;99.90;;;;;;12417372;28;20136;-83
2022/08/14 00:08:58;;;;;;;7.63;4.60;;;22.70;99.90;;;;;;12424351;28;20146;-83
2022/08/14 00:15:04;;;;;;;7.82;4.93;;;22.70;99.90;;;;;;12432878;28;20081;-83
2022/08/14 00:21:07;;;;;;;5.78;3.95;;;22.70;99.90;;;;;;12419031;28;20038;-83
2022/08/14 00:27:12;;;;;;;7.40;4.47;;;22.80;99.90;;;;;;12414712;28;20540;-83
2022/08/14 00:33:17;;;;;;;6.43;4.75;;;22.70;99.90;;;;;;12417742;28;20092;-83
2022/08/14 00:39:19;;;;;;;10.73;4.38;;;22.60;99.90;;;;;;12424733;28;20652;-83
2022/08/14 00:45:21;;;;;;;5.90;4.40;;;22.50;99.90;;;;;;12412004;28;20079;-83
2022/08/14 00:51:23;;;;;;;7.32;4.70;;;22.40;99.90;;;;;;12408188;28;20084;-83
2022/08/14 00:57:38;;;;;;;8.02;4.30;;;22.30;99.90;;;;;;12416179;28;20061;-83
2022/08/14 01:03:41;;;;;;;4.80;4.30;;;22.20;99.90;;;;;;12404487;28;20510;-83
2022/08/14 01:09:48;;;;;;;6.47;4.40;;;22.00;99.90;;;;;;12407024;28;20110;-83
2022/08/14 01:15:53;;;;;;;5.63;4.53;;;22.10;99.90;;;;;;12426276;28;20553;-84
2022/08/14 01:22:06;;;;;;;6.27;4.30;;;21.90;99.90;;;;;;12412526;28;20112;-83
2022/08/14 01:28:13;;;;;;;7.75;4.55;;;21.70;99.90;;;;;;12409443;28;20054;-83
2022/08/14 01:34:35;;;;;;;5.35;4.32;;;21.50;99.90;;;;;;12426376;28;20100;-83
2022/08/14 01:40:57;;;;;;;7.75;4.47;;;21.70;99.90;;;;;;12427357;28;20043;-84
2022/08/14 01:47:01;;;;;;;5.32;4.50;;;21.80;99.90;;;;;;12420459;28;20066;-83
2022/08/14 01:53:07;;;;;;;5.28;4.55;;;21.70;99.90;;;;;;12414105;28;20050;-83
2022/08/14 01:59:14;;;;;;;8.90;4.25;;;21.70;99.90;;;;;;12422052;28;20051;-82
2022/08/14 02:05:20;;;;;;;5.53;4.68;;;21.70;99.90;;;;;;12428901;28;20429;-82
2022/08/14 02:11:24;;;;;;;5.38;4.88;;;21.60;99.90;;;;;;12439115;28;20045;-82
2022/08/14 02:17:27;;;;;;;;;;;21.50;99.90;;;;;;12419814;28;20394;-83
2022/08/14 02:23:31;;;;;;;5.35;4.22;;;21.40;99.90;;;;;;12416081;28;19929;-83
2022/08/14 02:29:37;;;;;;;7.85;4.65;;;21.40;99.90;;;;;;12423720;28;20050;-83
2022/08/14 02:35:58;;;;;;;6.82;4.75;;;21.40;99.90;;;;;;12437154;28;20050;-83
2022/08/14 02:42:20;;;;;;;6.95;4.72;;;21.40;99.90;;;;;;12468882;28;20046;-83
2022/08/14 02:48:40;;;;;;;5.90;4.65;;;21.60;99.90;;;;;;12419779;28;20054;-83
2022/08/14 02:55:04;;;;;;;8.85;4.72;;;21.60;99.90;;;;;;12422984;28;20050;-82
2022/08/14 03:01:09;;;;;;;8.95;4.63;;;21.50;99.90;;;;;;12419418;28;20053;-82
2022/08/14 03:07:11;;;;;;;5.80;4.80;;;21.60;99.90;;;;;;12441057;28;20140;-82
2022/08/14 03:13:18;;;;;;;6.22;5.32;;;21.50;99.90;;;;;;12422838;28;20425;-83
2022/08/14 03:19:22;;;;;;;10.85;4.90;;;21.10;99.90;;;;;;12415925;28;20062;-82
2022/08/14 03:25:24;;;;;;;6.18;5.45;;;21.00;99.90;;;;;;12409773;28;20050;-82
2022/08/14 03:31:27;;;;;;;11.48;5.40;;;20.90;99.90;;;;;;12413251;28;20460;-83
2022/08/14 03:37:32;;;;;;;8.05;5.97;;;20.80;99.90;;;;;;12416243;28;20406;-83
2022/08/14 03:43:59;;;;;;;5.60;5.00;;;20.80;99.90;;;;;;12423021;28;20062;-83
2022/08/14 03:50:20;;;;;;;6.38;5.22;;;20.80;99.90;;;;;;12431868;28;20277;-83
2022/08/14 03:56:32;;;;;;;11.27;6.00;;;20.90;99.90;;;;;;12436824;28;20192;-83
2022/08/14 04:02:35;;;;;;;8.52;5.20;;;20.90;99.90;;;;;;12416830;28;20087;-82
2022/08/14 04:08:48;;;;;;;10.15;5.40;;;20.80;99.90;;;;;;12413178;28;20490;-83
2022/08/14 04:14:51;;;;;;;9.73;5.38;;;20.80;99.90;;;;;;12418694;28;20087;-82
2022/08/14 04:20:54;;;;;;;8.38;5.22;;;20.70;99.90;;;;;;12409876;28;20121;-82
2022/08/14 04:26:56;;;;;;;6.33;5.13;;;20.60;99.90;;;;;;12438139;28;20455;-83
2022/08/14 04:32:58;;;;;;;7.50;5.20;;;20.60;99.90;;;;;;12429784;28;20128;-83
2022/08/14 04:45:47;;;;;;;9.10;5.43;;;20.70;99.90;;;;;;12432070;28;20050;-83
2022/08/14 04:51:52;;;;;;;6.05;5.13;;;20.70;99.90;;;;;;12416137;28;20153;-83
2022/08/14 04:57:57;;;;;;;8.82;5.85;;;20.70;99.90;;;;;;12416234;28;20050;-83
2022/08/14 05:03:59;;;;;;;7.60;5.57;;;20.80;99.90;;;;;;12428469;28;20402;-83
2022/08/14 05:10:01;;;;;;;10.05;6.32;;;20.90;99.90;;;;;;12445380;28;20121;-83
2022/08/14 05:16:13;;;;;;;8.00;6.30;;;20.90;99.90;;;;;;12429045;28;20429;-83
2022/08/14 05:22:18;;;;;;;6.65;5.78;;;20.90;99.90;;;;;;12404533;28;20498;-83
2022/08/14 05:28:25;;;;;;;9.05;5.85;;;20.90;99.90;;;;;;12413330;28;20505;-84
2022/08/14 05:34:29;;;;;;;6.60;5.55;;;21.00;99.90;;;;;;12416654;28;20091;-83
2022/08/14 05:40:33;;;;;;;6.70;5.15;;;21.10;99.90;;;;;;12428823;28;20041;-83
2022/08/14 05:46:36;;;;;;;8.20;6.35;;;21.10;99.90;;;;;;12416858;28;20107;-83
2022/08/14 05:52:38;;;;;;;6.83;5.80;;;21.10;99.90;;;;;;12412608;28;20113;-83
2022/08/14 05:58:40;;;;;;;8.73;6.05;;;21.10;99.90;;;;;;12413885;28;20107;-83
2022/08/14 06:04:47;;;;;;;8.65;5.60;;;21.20;99.90;;;;;;12423684;28;20046;-82
2022/08/14 06:10:52;;;;;;;7.32;6.07;;;21.30;99.90;;;;;;12424403;28;20054;-83
2022/08/14 06:16:54;;;;;;;8.27;6.10;;;21.50;99.90;;;;;;12417666;28;20181;-83
2022/08/14 06:22:57;;;;;;;7.38;6.20;;;21.50;99.90;;;;;;12425509;28;20148;-83
2022/08/14 06:28:59;;;;;;;10.77;6.20;;;21.70;99.90;;;;;;12450828;28;20387;-82
2022/08/14 06:35:05;;;;;;;9.65;6.20;;;21.80;99.90;;;;;;12414223;28;20049;-83
2022/08/14 06:41:14;;;;;;;8.40;5.93;;;22.00;99.90;;;;;;12416780;28;20469;-83
2022/08/14 06:47:22;;;;;;;7.45;5.95;;;22.20;99.90;;;;;;12439235;28;20092;-83
2022/08/14 06:53:24;;;;;;;7.30;6.20;;;22.40;99.90;;;;;;12424708;28;20053;-83
2022/08/14 06:59:28;;;;;;;6.95;6.00;;;22.60;99.90;;;;;;12416209;28;20058;-82
2022/08/14 07:05:49;;;;;;;8.05;6.47;;;22.80;99.90;;;;;;12416183;28;20181;-83
2022/08/14 07:11:59;;;;;;;7.55;6.47;;;23.00;99.90;;;;;;12435168;28;20050;-83
2022/08/14 07:18:03;;;;;;;8.35;5.63;;;23.10;99.90;;;;;;12423204;28;20045;-84
2022/08/14 07:24:09;;;;;;;6.93;6.13;;;23.30;99.90;;;;;;12423672;28;20050;-83
2022/08/14 07:30:27;;;;;;;6.97;5.63;;;23.40;99.90;;;;;;12421002;28;20050;-83
2022/08/14 07:36:35;;;;;;;7.20;5.82;;;23.60;99.90;;;;;;12433332;28;20440;-83
2022/08/14 07:42:38;;;;;;;7.15;6.30;;;23.70;99.90;;;;;;12420756;28;20121;-83
2022/08/14 07:48:42;;;;;;;9.10;6.28;;;23.90;99.90;;;;;;12411877;28;20490;-84
2022/08/14 07:54:49;;;;;;;8.43;6.75;;;24.10;99.90;;;;;;12433473;28;20192;-83
2022/08/14 08:00:55;;;;;;;8.97;5.97;;;24.20;99.90;;;;;;12427309;28;20157;-84
2022/08/14 08:06:58;;;;;;;7.68;5.93;;;24.50;99.90;;;;;;12439985;28;20050;-84
2022/08/14 08:13:14;;;;;;;6.93;6.10;;;24.70;99.90;;;;;;12408147;28;20050;-83
2022/08/14 08:19:17;;;;;;;7.93;5.90;;;24.80;99.90;;;;;;12413625;28;20054;-84
2022/08/14 08:25:20;;;;;;;7.60;5.93;;;25.00;99.90;;;;;;12411486;28;20050;-83
2022/08/14 08:31:22;;;;;;;8.73;6.25;;;25.10;99.90;;;;;;12406633;28;20391;-83
2022/08/14 08:37:35;;;;;;;9.75;6.35;;;25.20;99.90;;;;;;12407800;28;20049;-84
2022/08/14 08:43:44;;;;;;;8.88;5.45;;;25.40;99.90;;;;;;12416119;28;20111;-84
2022/08/14 08:49:47;;;;;;;;;;;25.50;99.90;;;;;;12412603;28;20528;-83
2022/08/14 08:56:02;;;;;;;8.27;6.43;;;25.70;99.90;;;;;;12415239;28;19925;-84
2022/08/14 09:02:08;;;;;;;8.88;6.50;;;25.80;99.90;;;;;;12415868;28;20502;-83
2022/08/14 09:08:17;;;;;;;7.97;5.60;;;25.80;99.90;;;;;;12424999;28;20058;-84
2022/08/14 09:14:35;;;;;;;10.25;6.57;;;25.90;99.90;;;;;;12414544;28;20057;-85
2022/08/14 09:20:43;;;;;;;9.52;6.32;;;26.00;99.90;;;;;;12416773;28;20077;-85
2022/08/14 09:26:46;;;;;;;8.90;5.82;;;26.20;99.90;;;;;;12411106;28;20060;-84
2022/08/14 09:33:14;;;;;;;7.60;6.00;;;26.10;99.90;;;;;;12416023;28;20045;-84
2022/08/14 09:39:48;;;;;;;11.10;5.97;;;26.60;99.90;;;;;;12412929;28;20305;-84
2022/08/14 09:45:51;;;;;;;8.18;6.13;;;26.70;99.90;;;;;;12412966;28;20042;-84
2022/08/14 09:52:03;;;;;;;8.45;5.78;;;26.90;99.90;;;;;;12417802;28;20050;-83
2022/08/14 09:58:37;;;;;;;6.57;5.88;;;27.00;99.90;;;;;;12415489;28;20050;-84
2022/08/14 10:04:39;;;;;;;7.65;6.03;;;27.00;99.90;;;;;;12422518;28;20058;-85
2022/08/14 10:10:51;;;;;;;8.93;5.75;;;27.40;99.90;;;;;;12420380;28;20045;-85
2022/08/14 10:17:05;;;;;;;7.72;5.57;;;27.40;99.90;;;;;;12426993;28;20050;-83
2022/08/14 10:23:17;;;;;;;7.72;6.03;;;27.50;99.90;;;;;;12424020;28;20046;-85
2022/08/14 10:29:33;;;;;;;6.03;5.43;;;27.90;99.90;;;;;;12427372;28;20050;-85
2022/08/14 10:35:43;;;;;;;9.40;6.00;;;27.90;99.90;;;;;;12418257;28;20053;-85
2022/08/14 10:42:04;;;;;;;7.03;5.80;;;27.90;99.90;;;;;;12426427;28;20046;-85
2022/08/14 10:48:19;;;;;;;7.88;5.65;;;27.30;99.90;;;;;;12417798;28;20490;-86
2022/08/14 10:54:43;;;;;;;8.05;5.80;;;27.70;99.90;;;;;;12425548;28;20049;-85
2022/08/14 11:00:56;;;;;;;8.68;5.38;;;28.30;99.90;;;;;;12423039;28;20045;-85
2022/08/14 11:06:58;;;;;;;7.30;5.53;;;28.60;99.90;;;;;;12429759;28;20144;-85
2022/08/14 11:13:00;;;;;;;6.80;5.43;;;28.50;99.90;;;;;;12429794;28;20168;-84
2022/08/14 11:19:06;;;;;;;5.28;4.25;;;28.50;99.90;;;;;;12432179;28;20069;-84
2022/08/14 11:25:12;;;;;;;7.45;4.82;;;28.80;99.90;;;;;;12432250;28;20566;-85
2022/08/14 11:31:22;;;;;;;6.13;4.80;;;29.30;99.90;;;;;;12426947;28;20366;-85
2022/08/14 11:37:24;;;;;;;7.00;4.88;;;29.80;99.90;;;;;;12435573;28;20120;-86
2022/08/14 11:43:42;;;;;;;6.38;4.70;;;29.40;99.90;;;;;;12430462;28;20054;-85
2022/08/14 11:49:56;;;;;;;6.95;5.05;;;29.50;99.90;;;;;;12419602;28;20057;-83
2022/08/14 11:56:02;;;;;;;6.65;4.85;;;29.50;99.90;;;;;;12419964;28;20073;-84
2022/08/14 12:02:12;;;;;;;7.70;4.55;;;29.80;99.90;;;;;;12408987;28;20088;-85
2022/08/14 12:08:37;;;;;;;7.35;5.03;;;29.20;99.90;;;;;;12421270;28;20585;-85
2022/08/14 12:14:58;;;;;;;7.15;5.07;;;29.10;99.90;;;;;;12407952;28;20069;-85
2022/08/14 12:21:18;;;;;;;7.30;4.60;;;28.70;99.90;;;;;;12421870;28;20081;-85
2022/08/14 12:27:20;;;;;;;7.97;5.35;;;28.20;99.90;;;;;;12409967;28;20050;-84
2022/08/14 12:33:31;;;;;;;7.38;4.93;;;28.40;99.90;;;;;;12408909;28;20057;-84
2022/08/14 12:39:35;;;;;;;6.88;4.30;;;28.70;99.90;;;;;;12402092;28;20054;-85
2022/08/14 12:45:49;;;;;;;8.07;4.88;;;29.10;99.90;;;;;;12411736;28;20042;-85
2022/08/14 12:51:59;;;;;;;6.88;4.47;;;28.70;99.90;;;;;;12398373;28;20568;-84
2022/08/14 12:58:07;;;;;;;6.32;4.78;;;28.50;99.90;;;;;;12425240;28;20042;-87
2022/08/14 13:04:30;;;;;;;6.20;4.70;;;29.00;99.90;;;;;;12416242;28;20076;-86
2022/08/14 13:10:33;;;;;;;7.65;4.53;;;30.00;99.90;;;;;;12408655;28;20050;-85
2022/08/14 13:16:54;;;;;;;5.75;4.43;;;30.00;99.90;;;;;;12403358;28;20076;-85
2022/08/14 13:23:01;;;;;;;5.70;4.60;;;29.70;99.90;;;;;;12428036;28;20049;-84
2022/08/14 13:29:05;;;;;;;6.03;5.03;;;29.90;99.90;;;;;;12407651;28;20073;-86
2022/08/14 13:35:12;;;;;;;6.85;4.75;;;30.30;99.90;;;;;;12422348;28;20050;-86
2022/08/14 13:41:22;;;;;;;5.68;4.53;;;29.80;99.90;;;;;;12421737;28;20042;-84
2022/08/14 13:47:32;;;;;;;5.93;4.05;;;30.20;99.90;;;;;;12421030;28;20103;-81
2022/08/14 13:53:43;;;;;;;6.97;4.88;;;30.90;99.90;;;;;;12420344;28;20477;-84
2022/08/14 14:00:12;;;;;;;8.43;4.82;;;30.20;99.90;;;;;;12414307;28;20417;-84
2022/08/14 14:06:22;;;;;;;9.43;4.93;;;29.60;99.90;;;;;;12398334;28;20061;-84
2022/08/14 14:12:24;;;;;;;6.25;4.20;;;30.30;99.90;;;;;;12411957;28;20531;-85
2022/08/14 14:18:48;;;;;;;6.43;4.30;;;30.70;99.90;;;;;;12443092;28;20548;-85
2022/08/14 14:24:53;;;;;;;6.07;4.13;;;31.30;99.90;;;;;;12380178;28;20353;-81
2022/08/14 14:30:55;;;;;;;7.32;4.03;;;31.70;99.90;;;;;;12385171;28;20517;-85
2022/08/14 14:37:09;;;;;;;5.90;3.70;;;31.90;99.90;;;;;;12391744;28;20184;-85
2022/08/14 14:43:14;;;;;;;8.90;4.43;;;32.00;99.90;;;;;;12385103;28;20057;-84
2022/08/14 14:49:18;;;;;;;5.88;4.25;;;31.70;99.90;;;;;;12374022;28;20067;-82
2022/08/14 14:55:22;;;;;;;6.22;4.75;;;31.60;99.90;;;;;;12371703;28;20688;-85
2022/08/14 15:01:27;;;;;;;8.20;4.22;;;31.10;99.90;;;;;;12378244;28;20077;-85
2022/08/14 15:07:30;;;;;;;7.43;4.90;;;30.50;99.90;;;;;;12382131;28;20081;-84
2022/08/14 15:13:36;;;;;;;5.45;4.32;;;30.50;99.90;;;;;;12376265;28;20058;-85
2022/08/14 15:19:44;;;;;;;5.88;4.40;;;30.60;99.90;;;;;;12388365;28;20082;-85
2022/08/14 15:26:00;;;;;;;6.10;4.22;;;30.80;99.90;;;;;;12395251;28;20046;-84
2022/08/14 15:32:03;;;;;;;7.18;4.50;;;30.50;99.90;;;;;;12373032;28;20080;-85
2022/08/14 15:38:09;;;;;;;9.30;4.40;;;30.30;99.90;;;;;;12397209;28;20140;-85
2022/08/14 15:44:15;;;;;;;6.07;4.88;;;30.20;99.90;;;;;;12377039;28;20093;-84
2022/08/14 15:50:29;;;;;;;8.55;4.60;;;30.30;99.90;;;;;;12368418;28;20061;-85
2022/08/14 15:56:30;;;;;;;7.57;4.35;;;30.40;99.90;;;;;;12382925;28;20140;-85
2022/08/14 16:02:43;;;;;;;7.05;4.68;;;30.50;99.90;;;;;;12378948;28;20042;-84
2022/08/14 16:08:50;;;;;;;10.73;4.82;;;30.60;99.90;;;;;;12383585;28;20176;-82
2022/08/14 16:15:09;;;;;;;6.07;4.22;;;31.00;99.90;;;;;;12533191;28;20127;-39
2022/08/14 16:21:12;;;;;;;5.65;4.78;;;31.20;99.90;;;;;;12475804;28;20042;-35
2022/08/14 16:27:14;;;;;;;5.35;4.35;;;30.90;99.90;;;;;;12486154;28;20053;-34
2022/08/14 16:33:21;;;;;;;8.02;4.95;;;30.50;99.90;;;;;;12479904;28;20148;-34
2022/08/14 16:39:45;;;;;;;6.72;4.40;;;30.30;99.90;;;;;;12481308;28;20050;-38
2022/08/14 16:45:50;;;;;;;6.35;4.20;;;30.20;99.90;;;;;;12475708;28;20056;-35
2022/08/14 16:51:54;;;;;;;4.75;4.07;;;30.20;99.90;;;;;;12477329;28;20072;-34
2022/08/14 16:57:57;;;;;;;6.93;4.10;;;30.10;99.90;;;;;;12485470;28;20049;-34
2022/08/14 17:04:14;;;;;;;6.18;4.35;;;30.30;99.90;;;;;;12473859;28;20042;-39
2022/08/14 17:10:26;;;;;;;5.85;4.30;;;30.30;99.90;;;;;;12470385;28;20053;-34
2022/08/14 17:16:32;;;;;;;6.78;4.50;;;30.10;99.90;;;;;;12481899;28;20053;-38
2022/08/14 17:22:46;;;;;;;6.57;4.50;;;29.70;99.90;;;;;;12470649;28;20058;-39
2022/08/14 17:29:22;;;;;;;7.75;4.43;;;29.40;99.90;;;;;;12440617;28;20472;-38
2022/08/14 17:35:32;;;;;;;5.80;4.47;;;29.20;99.90;;;;;;12448594;28;20136;-34
2022/08/14 17:42:01;;;;;;;6.13;4.45;;;28.90;99.90;;;;;;12449669;28;20042;-34
2022/08/14 17:48:08;;;;;;;7.53;4.93;;;28.80;99.90;;;;;;12447957;28;20046;-39
2022/08/14 17:54:40;;;;;;;7.45;4.85;;;28.70;99.90;;;;;;12397910;28;20034;-34
2022/08/14 18:00:46;;;;;;;8.30;5.03;;;28.50;99.90;;;;;;12393976;28;20053;-34
2022/08/14 18:06:50;;;;;;;7.57;4.88;;;28.40;99.90;;;;;;12393232;28;20474;-34
2022/08/14 18:13:08;;;;;;;6.05;4.82;;;28.30;99.90;;;;;;12394002;28;20077;-36
2022/08/14 18:19:11;;;;;;;8.82;5.13;;;28.20;99.90;;;;;;12391245;28;20184;-38
2022/08/14 18:25:13;;;;;;;6.80;4.70;;;28.10;99.90;;;;;;12392878;28;20625;-39
2022/08/14 18:31:19;;;;;;;5.97;4.72;;;28.00;99.90;;;;;;12374687;28;20046;-34
2022/08/14 18:37:21;;;;;;;9.10;5.23;;;28.00;99.90;;;;;;12393666;28;20061;-34
2022/08/14 18:43:40;;;;;;;9.48;5.60;;;28.00;99.90;;;;;;12399394;28;20042;-34
2022/08/14 18:49:53;;;;;;;5.93;4.60;;;27.90;99.90;;;;;;12394190;28;20053;-41
2022/08/14 18:56:00;;;;;;;6.22;4.90;;;27.90;99.90;;;;;;12388216;28;20133;-34
2022/08/14 19:02:28;;;;;;;5.88;5.28;;;27.80;99.90;;;;;;12388620;28;20035;-38
2022/08/14 19:08:48;;;;;;;7.40;4.88;;;27.70;99.90;;;;;;12397883;28;20046;-39
2022/08/14 19:14:52;;;;;;;5.57;4.35;;;27.70;99.90;;;;;;12391830;28;20046;-35
2022/08/14 19:21:00;;;;;;;6.63;4.57;;;27.70;99.90;;;;;;12401600;28;20051;-35
2022/08/14 19:27:22;;;;;;;8.25;5.35;;;27.60;99.90;;;;;;12391782;28;20042;-38
2022/08/14 19:33:46;;;;;;;6.82;4.60;;;27.50;99.90;;;;;;12388543;28;20072;-35
2022/08/14 19:39:48;;;;;;;6.50;5.05;;;27.40;99.90;;;;;;12388133;28;20592;-39
2022/08/14 19:45:54;;;;;;;7.90;4.72;;;27.20;99.90;;;;;;12388992;28;20633;-38
2022/08/14 19:51:56;;;;;;;6.17;4.50;;;27.20;99.90;;;;;;12388619;28;20050;-35
2022/08/14 19:58:00;;;;;;;8.55;4.43;;;27.20;99.90;;;;;;12391403;28;20046;-34
2022/08/14 20:04:07;;;;;;;7.05;4.60;;;27.00;99.90;;;;;;12393948;28;20087;-34
2022/08/14 20:10:31;;;;;;;7.47;4.13;;;26.90;99.90;;;;;;12381927;28;20050;-37
2022/08/14 20:16:56;;;;;;;7.43;5.22;;;26.90;99.90;;;;;;12395910;28;20058;-38
2022/08/14 20:23:11;;;;;;;6.10;4.80;;;26.70;99.90;;;;;;12395063;28;20084;-34
2022/08/14 20:29:28;;;;;;;6.65;4.80;;;26.50;99.90;;;;;;12385582;28;20050;-34
2022/08/14 20:35:42;;;;;;;6.43;4.88;;;26.40;99.90;;;;;;12384806;28;20482;-34
2022/08/14 20:41:45;;;;;;;8.30;5.05;;;26.30;99.90;;;;;;12386539;28;20043;-38
2022/08/14 20:48:00;;;;;;;6.25;4.70;;;26.20;99.90;;;;;;12396329;28;20057;-38
2022/08/14 20:54:19;;;;;;;9.70;5.38;;;26.10;99.90;;;;;;12386893;28;20046;-34
2022/08/14 21:00:43;;;;;;;8.85;4.80;;;26.00;99.90;;;;;;12393679;28;20049;-38
2022/08/14 21:06:56;;;;;;;6.85;4.90;;;26.00;99.90;;;;;;12400332;28;20050;-38
2022/08/14 21:13:19;;;;;;;7.22;5.20;;;25.90;99.90;;;;;;12390887;28;20053;-38
2022/08/14 21:19:42;;;;;;;7.03;5.00;;;25.80;99.90;;;;;;12398404;28;20053;-34
2022/08/14 21:25:51;;;;;;;6.40;5.15;;;25.60;99.90;;;;;;12393155;28;20080;-34
2022/08/14 21:31:54;;;;;;;5.68;4.75;;;25.60;99.90;;;;;;12393092;28;20497;-34
2022/08/14 21:37:57;;;;;;;8.30;4.93;;;25.70;99.90;;;;;;12397165;28;20051;-34
2022/08/14 21:44:04;;;;;;;6.45;4.57;;;25.60;99.90;;;;;;12391025;28;20530;-35
2022/08/14 21:50:20;;;;;;;6.82;5.15;;;25.70;99.90;;;;;;12377806;28;20478;-38
2022/08/14 21:56:44;;;;;;;6.53;4.22;;;25.80;99.90;;;;;;12397980;28;20050;-34
2022/08/14 22:02:58;;;;;;;6.00;5.03;;;25.80;99.90;;;;;;12387709;28;20478;-34
2022/08/14 22:09:01;;;;;;;5.68;4.47;;;25.80;99.90;;;;;;12397821;28;20078;-38
2022/08/14 22:15:05;;;;;;;5.43;4.50;;;25.70;99.90;;;;;;12390513;28;20069;-34
2022/08/14 22:21:07;;;;;;;7.13;4.55;;;25.70;99.90;;;;;;12392679;28;20433;-34
2022/08/14 22:27:17;;;;;;;5.82;4.35;;;25.70;99.90;;;;;;12391592;28;20049;-34
2022/08/14 22:33:27;;;;;;;5.13;3.97;;;25.70;99.90;;;;;;12389382;28;20050;-35
2022/08/14 22:39:33;;;;;;;6.28;4.57;;;25.60;99.90;;;;;;12386591;28;20053;-38
2022/08/14 22:45:55;;;;;;;;;;;25.60;99.90;;;;;;12379750;28;20050;-37
2022/08/14 22:52:07;;;;;;;6.30;4.00;;;25.60;99.90;;;;;;12383208;28;20441;-34
2022/08/14 22:58:29;;;;;;;6.53;4.25;;;25.50;99.90;;;;;;12393240;28;20050;-38
2022/08/14 23:04:36;;;;;;;7.57;4.30;;;25.50;99.90;;;;;;12388120;28;20249;-36
2022/08/14 23:10:55;;;;;;;4.93;4.40;;;25.30;99.90;;;;;;12389811;28;20046;-38
2022/08/14 23:16:56;;;;;;;6.70;4.20;;;25.30;99.90;;;;;;12395408;28;20054;-34
2022/08/14 23:22:58;;;;;;;6.10;4.40;;;25.30;99.90;;;;;;12389055;28;20050;-38
2022/08/14 23:29:01;;;;;;;5.90;4.20;;;25.30;99.90;;;;;;12387245;28;20100;-34
2022/08/14 23:35:06;;;;;;;6.68;4.22;;;25.30;99.90;;;;;;12388826;28;20049;-34
2022/08/14 23:41:11;;;;;;;9.05;4.07;;;25.20;99.90;;;;;;12386941;28;20079;-38
2022/08/14 23:47:19;;;;;;;4.97;4.22;;;25.30;99.90;;;;;;12391718;28;20049;-34
2022/08/14 23:53:30;;;;;;;5.50;4.07;;;25.30;99.90;;;;;;12392932;28;20132;-34
2022/08/14 23:59:49;;;;;;;6.35;4.32;;;25.40;99.90;;;;;;12397836;28;20141;-38
